Time;durP1;ratioP1;P1;durP2;ratioP2;P2;SDS_P1;SDS_P2;PMS_P1;PMS_P2;Temp;Humidity;BMP_temperature;BMP_pressure;BME280_temperature;BME280_humidity;BME280_pressure;Samples;Min_cycle;Max_cycle;Signal;HPM_P1;HPM_P2
2022/03/31 00:00:29;;;;;;;7.88;2.83;;;4.00;99.90;;;;;;5045479;28;20043;-72
2022/03/31 00:02:57;;;;;;;12.80;2.95;;;3.90;99.90;;;;;;5047328;28;20055;-72
2022/03/31 00:05:23;;;;;;;6.70;2.40;;;3.80;99.90;;;;;;5028613;28;20480;-72
2022/03/31 00:07:57;;;;;;;8.20;2.47;;;3.70;99.90;;;;;;5014387;28;20087;-72
2022/03/31 00:10:26;;;;;;;8.00;2.45;;;3.60;99.90;;;;;;5029712;28;20052;-72
2022/03/31 00:12:53;;;;;;;9.90;2.58;;;3.60;99.90;;;;;;5050156;28;20118;-72
2022/03/31 00:15:20;;;;;;;7.38;2.38;;;3.80;99.90;;;;;;5045630;28;20043;-72
2022/03/31 00:17:46;;;;;;;9.65;2.95;;;3.70;99.90;;;;;;5028744;28;20052;-72
2022/03/31 00:20:12;;;;;;;6.55;2.72;;;3.60;99.90;;;;;;5048929;28;20055;-72
2022/03/31 00:22:41;;;;;;;8.43;2.80;;;3.60;99.90;;;;;;5046830;28;20040;-72
2022/03/31 00:25:10;;;;;;;7.75;2.70;;;3.40;99.90;;;;;;5050449;28;20059;-72
2022/03/31 00:27:38;;;;;;;7.35;2.40;;;3.30;99.90;;;;;;5032573;28;20822;-72
2022/03/31 00:30:05;;;;;;;8.60;2.90;;;3.30;99.90;;;;;;5034552;28;20047;-72
2022/03/31 00:32:35;;;;;;;7.53;2.78;;;3.30;99.90;;;;;;5047127;28;20044;-72
2022/03/31 00:35:01;;;;;;;6.90;2.50;;;3.40;99.90;;;;;;5046102;28;20048;-72
2022/03/31 00:37:28;;;;;;;6.47;2.47;;;3.40;99.90;;;;;;5047146;28;20520;-72
2022/03/31 00:39:54;;;;;;;8.00;2.75;;;3.20;99.90;;;;;;5048566;28;20044;-72
2022/03/31 00:42:21;;;;;;;5.97;2.70;;;3.20;99.90;;;;;;5041407;28;20044;-72
2022/03/31 00:44:48;;;;;;;9.32;3.05;;;3.20;99.90;;;;;;5018263;28;20098;-72
2022/03/31 00:47:15;;;;;;;11.32;2.97;;;3.20;99.90;;;;;;5044975;28;20036;-72
2022/03/31 00:49:41;;;;;;;8.65;2.65;;;3.30;99.90;;;;;;5044337;28;20060;-72
2022/03/31 00:52:08;;;;;;;9.40;3.20;;;3.20;99.90;;;;;;5046862;28;20048;-72
2022/03/31 00:54:35;;;;;;;11.25;3.38;;;3.20;99.90;;;;;;5047425;28;20044;-72
2022/03/31 00:57:02;;;;;;;8.70;2.70;;;3.10;99.90;;;;;;5030544;28;20043;-72
2022/03/31 00:59:29;;;;;;;12.02;3.00;;;3.20;99.90;;;;;;5011884;28;20066;-72
2022/03/31 01:01:56;;;;;;;8.38;2.95;;;3.10;99.90;;;;;;5025843;28;20067;-72
2022/03/31 01:04:22;;;;;;;10.38;2.85;;;3.00;99.90;;;;;;5046508;28;20151;-72
2022/03/31 01:06:49;;;;;;;7.03;2.75;;;3.10;99.90;;;;;;5028228;28;20297;-72
2022/03/31 01:09:15;;;;;;;8.00;2.88;;;3.10;99.90;;;;;;5045288;28;20613;-72
2022/03/31 01:11:42;;;;;;;8.38;2.70;;;2.90;99.90;;;;;;5043841;28;20060;-72
2022/03/31 01:14:08;;;;;;;7.57;2.75;;;2.80;99.90;;;;;;5027863;28;20043;-72
2022/03/31 01:16:35;;;;;;;7.70;2.53;;;2.90;99.90;;;;;;5047541;28;20561;-72
2022/03/31 01:19:05;;;;;;;6.93;2.65;;;3.00;99.90;;;;;;5026201;28;20052;-72
2022/03/31 01:21:39;;;;;;;8.07;2.60;;;2.90;99.90;;;;;;5047648;28;20056;-72
2022/03/31 01:24:07;;;;;;;6.57;2.67;;;2.70;99.90;;;;;;5046272;28;20052;-72
2022/03/31 01:26:38;;;;;;;6.47;2.60;;;2.60;99.90;;;;;;5047946;28;20541;-72
2022/03/31 01:29:04;;;;;;;7.90;2.70;;;2.70;99.90;;;;;;5050151;28;20058;-72
2022/03/31 01:31:32;;;;;;;7.15;2.80;;;2.70;99.90;;;;;;5047202;28;20052;-72
2022/03/31 01:33:58;;;;;;;10.10;2.92;;;2.80;99.90;;;;;;5049784;28;20052;-72
2022/03/31 01:36:27;;;;;;;11.73;2.80;;;2.70;99.90;;;;;;5049094;28;20040;-72
2022/03/31 01:38:55;;;;;;;9.55;3.30;;;2.60;99.90;;;;;;5028159;28;20155;-71
2022/03/31 01:41:24;;;;;;;12.38;3.47;;;2.50;99.90;;;;;;5027935;28;21036;-71
2022/03/31 01:43:51;;;;;;;8.20;3.08;;;2.70;99.90;;;;;;5045032;28;20777;-71
2022/03/31 01:46:17;;;;;;;7.25;2.80;;;2.70;99.90;;;;;;5045084;28;20132;-71
2022/03/31 01:48:43;;;;;;;9.20;3.05;;;2.50;99.90;;;;;;5044782;28;20048;-71
2022/03/31 01:51:09;;;;;;;8.40;3.10;;;2.60;99.90;;;;;;5046493;28;20554;-71
2022/03/31 01:53:38;;;;;;;8.40;2.75;;;2.60;99.90;;;;;;5010803;28;20509;-71
2022/03/31 01:56:04;;;;;;;9.02;2.60;;;2.60;99.90;;;;;;5047100;28;20407;-71
2022/03/31 01:58:31;;;;;;;9.23;3.30;;;2.60;99.90;;;;;;5042291;28;20089;-71
2022/03/31 02:00:59;;;;;;;9.68;3.00;;;2.70;99.90;;;;;;5048496;28;20875;-72
2022/03/31 02:03:25;;;;;;;9.23;3.05;;;2.60;99.90;;;;;;5042184;28;20055;-72
2022/03/31 02:05:51;;;;;;;7.20;2.83;;;2.50;99.90;;;;;;5046589;28;20051;-72
2022/03/31 02:08:18;;;;;;;6.25;2.83;;;2.60;99.90;;;;;;5050609;28;20551;-71
2022/03/31 02:10:45;;;;;;;5.82;2.58;;;2.50;99.90;;;;;;5044512;28;20097;-71
2022/03/31 02:13:12;;;;;;;7.82;2.92;;;2.60;99.90;;;;;;5024905;28;20060;-71
2022/03/31 02:15:38;;;;;;;8.02;2.55;;;2.60;99.90;;;;;;5027824;28;20044;-71
2022/03/31 02:18:04;;;;;;;8.35;3.03;;;2.60;99.90;;;;;;5043098;28;20113;-71
2022/03/31 02:20:31;;;;;;;9.65;3.25;;;2.60;99.90;;;;;;5045021;28;20177;-71
2022/03/31 02:23:00;;;;;;;9.02;3.10;;;2.40;99.90;;;;;;5048849;28;20081;-72
2022/03/31 02:25:27;;;;;;;9.70;3.42;;;2.60;99.90;;;;;;5047854;28;20063;-72
2022/03/31 02:27:54;;;;;;;10.65;3.28;;;2.50;99.90;;;;;;5029311;28;20048;-72
2022/03/31 02:30:22;;;;;;;8.98;3.58;;;2.60;99.90;;;;;;5044736;28;20048;-72
2022/03/31 02:32:49;;;;;;;8.95;3.80;;;2.50;99.90;;;;;;5046405;28;20121;-72
2022/03/31 02:35:14;;;;;;;10.48;3.88;;;2.50;99.90;;;;;;5045965;28;20052;-72
2022/03/31 02:37:40;;;;;;;8.38;3.97;;;2.60;99.90;;;;;;5042742;28;20075;-72
2022/03/31 02:40:07;;;;;;;10.57;4.32;;;2.60;99.90;;;;;;5042814;28;20107;-72
2022/03/31 02:42:35;;;;;;;8.77;4.53;;;2.60;99.90;;;;;;5044319;28;20044;-72
2022/03/31 02:45:03;;;;;;;7.80;3.95;;;2.40;99.90;;;;;;5040193;28;20494;-71
2022/03/31 02:47:29;;;;;;;10.88;5.45;;;2.30;99.90;;;;;;5024563;28;20051;-71
2022/03/31 02:49:57;;;;;;;10.00;5.80;;;2.40;99.90;;;;;;5046534;28;20048;-72
2022/03/31 02:52:23;;;;;;;9.85;4.38;;;2.40;99.90;;;;;;5041653;28;20044;-72
2022/03/31 02:57:34;;;;;;;55.72;8.02;;;2.50;99.90;;;;;;5044916;28;20044;-71
2022/03/31 03:00:00;;;;;;;27.40;7.18;;;2.50;99.90;;;;;;5046422;28;20040;-71
2022/03/31 03:02:26;;;;;;;27.33;7.45;;;2.50;99.90;;;;;;5031149;28;20044;-71
2022/03/31 03:04:52;;;;;;;33.28;9.00;;;2.60;99.90;;;;;;5030513;28;20402;-71
2022/03/31 03:07:18;;;;;;;12.40;7.38;;;2.60;99.90;;;;;;5049761;28;20127;-71
2022/03/31 03:09:43;;;;;;;12.48;7.70;;;2.50;99.90;;;;;;5026028;28;20059;-71
2022/03/31 03:12:10;;;;;;;15.60;8.52;;;2.50;99.90;;;;;;5045769;28;20738;-71
2022/03/31 03:14:36;;;;;;;14.18;9.50;;;2.60;99.90;;;;;;5045024;28;20048;-71
2022/03/31 03:17:02;;;;;;;17.33;8.07;;;2.50;99.90;;;;;;5045128;28;20149;-71
2022/03/31 03:19:28;;;;;;;16.17;8.73;;;2.50;99.90;;;;;;5040251;28;20040;-71
2022/03/31 03:21:54;;;;;;;13.68;10.25;;;2.60;99.90;;;;;;5044902;28;20051;-71
2022/03/31 03:24:22;;;;;;;14.02;10.60;;;2.60;99.90;;;;;;5044062;28;20044;-71
2022/03/31 03:26:48;;;;;;;13.02;9.73;;;2.70;99.90;;;;;;5042289;28;20117;-71
2022/03/31 03:29:14;;;;;;;12.48;10.05;;;2.70;99.90;;;;;;5045194;28;20067;-73
2022/03/31 03:31:39;;;;;;;12.45;9.30;;;2.80;99.90;;;;;;5045430;28;20210;-73
2022/03/31 03:34:05;;;;;;;15.15;10.18;;;2.80;99.90;;;;;;4993898;28;20048;-71
2022/03/31 03:36:31;;;;;;;13.55;10.13;;;2.80;99.90;;;;;;5027774;28;20140;-71
2022/03/31 03:38:57;;;;;;;14.20;10.15;;;2.80;99.90;;;;;;5028911;28;20399;-71
2022/03/31 03:41:23;;;;;;;15.60;9.98;;;2.80;99.90;;;;;;5022892;28;20055;-71
2022/03/31 03:43:50;;;;;;;13.38;9.73;;;2.80;99.90;;;;;;5026866;28;20056;-71
2022/03/31 03:46:15;;;;;;;11.73;9.45;;;2.70;99.90;;;;;;5045272;28;20602;-71
2022/03/31 03:48:41;;;;;;;13.13;10.05;;;2.80;99.90;;;;;;5043948;28;20086;-71
2022/03/31 03:51:09;;;;;;;15.20;11.02;;;2.80;99.90;;;;;;5047682;28;20052;-71
2022/03/31 03:53:35;;;;;;;12.50;9.55;;;2.80;99.90;;;;;;5044527;28;20063;-71
2022/03/31 03:56:01;;;;;;;13.98;10.07;;;2.90;99.90;;;;;;5032394;28;20156;-71
2022/03/31 03:58:27;;;;;;;14.07;10.27;;;2.80;99.90;;;;;;5031145;28;20054;-71
2022/03/31 04:00:53;;;;;;;16.15;10.70;;;2.90;99.90;;;;;;5031712;28;20056;-71
2022/03/31 04:03:19;;;;;;;13.73;10.30;;;3.00;99.90;;;;;;5043703;28;20044;-71
2022/03/31 04:05:45;;;;;;;14.15;11.05;;;3.00;99.90;;;;;;5043123;28;20677;-71
2022/03/31 04:08:11;;;;;;;16.38;11.00;;;3.00;99.90;;;;;;5025402;28;20075;-71
2022/03/31 04:10:37;;;;;;;13.57;9.60;;;3.00;99.90;;;;;;5046155;28;20048;-71
2022/03/31 04:13:03;;;;;;;11.07;8.77;;;3.00;99.90;;;;;;5046201;28;20417;-71
2022/03/31 04:15:29;;;;;;;23.15;9.75;;;3.10;99.90;;;;;;5027897;28;20047;-71
2022/03/31 04:17:54;;;;;;;14.20;10.75;;;3.10;99.90;;;;;;5045972;28;20044;-71
2022/03/31 04:20:21;;;;;;;15.80;10.95;;;3.10;99.90;;;;;;5049332;28;20044;-71
2022/03/31 04:22:46;;;;;;;14.25;10.80;;;3.10;99.90;;;;;;5045217;28;20048;-71
2022/03/31 04:25:13;;;;;;;12.88;10.32;;;3.10;99.90;;;;;;5048739;28;20466;-71
2022/03/31 04:27:40;;;;;;;13.50;10.85;;;3.10;99.90;;;;;;5029282;28;20052;-71
2022/03/31 04:30:09;;;;;;;15.23;11.20;;;3.10;99.90;;;;;;5039398;28;20048;-71
2022/03/31 04:32:34;;;;;;;13.40;11.00;;;3.10;99.90;;;;;;5059477;28;20036;-72
2022/03/31 04:35:00;;;;;;;16.67;11.15;;;3.10;99.90;;;;;;5040674;28;20048;-71
2022/03/31 04:37:26;;;;;;;14.60;11.23;;;3.10;99.90;;;;;;5036924;28;20048;-71
2022/03/31 04:39:52;;;;;;;14.90;11.60;;;3.00;99.90;;;;;;5039782;28;20048;-71
2022/03/31 04:42:20;;;;;;;16.58;12.25;;;3.00;99.90;;;;;;5054186;28;20494;-71
2022/03/31 04:44:46;;;;;;;30.05;11.27;;;3.00;99.90;;;;;;5047634;28;20828;-71
2022/03/31 04:47:12;;;;;;;20.60;11.65;;;3.10;99.90;;;;;;5044854;28;20051;-72
2022/03/31 04:49:38;;;;;;;16.50;12.10;;;3.10;99.90;;;;;;5039233;28;20055;-71
2022/03/31 04:52:04;;;;;;;17.38;11.75;;;3.20;99.90;;;;;;5044582;28;20040;-71
2022/03/31 04:54:31;;;;;;;15.32;12.18;;;3.20;99.90;;;;;;5043452;28;20043;-72
2022/03/31 04:56:57;;;;;;;19.25;11.40;;;3.10;99.90;;;;;;5025845;28;20469;-71
2022/03/31 04:59:22;;;;;;;18.15;11.32;;;3.00;99.90;;;;;;5046265;28;20561;-71
2022/03/31 05:01:49;;;;;;;14.75;11.57;;;3.00;99.90;;;;;;5042116;28;20368;-71
2022/03/31 05:04:15;;;;;;;16.85;11.07;;;3.10;99.90;;;;;;5040640;28;20040;-71
2022/03/31 05:06:41;;;;;;;16.15;10.88;;;3.10;99.90;;;;;;5046548;28;20333;-71
2022/03/31 05:09:07;;;;;;;16.02;11.35;;;3.00;99.90;;;;;;5046757;28;20047;-71
2022/03/31 05:11:34;;;;;;;14.10;10.77;;;3.10;99.90;;;;;;5051365;28;20516;-71
2022/03/31 05:14:00;;;;;;;15.73;10.82;;;3.10;99.90;;;;;;5049053;28;20059;-72
2022/03/31 05:16:26;;;;;;;16.00;10.48;;;3.00;99.90;;;;;;5047292;28;20070;-71
2022/03/31 05:18:51;;;;;;;14.57;10.93;;;3.10;99.90;;;;;;5049120;28;20043;-71
2022/03/31 05:21:18;;;;;;;15.60;11.20;;;3.00;99.90;;;;;;5052869;28;20063;-72
2022/03/31 05:23:44;;;;;;;28.67;11.88;;;3.00;99.90;;;;;;5049594;28;20055;-72
2022/03/31 05:26:09;;;;;;;17.13;11.65;;;3.00;99.90;;;;;;5048234;28;20040;-72
2022/03/31 05:28:35;;;;;;;16.73;11.73;;;2.90;99.90;;;;;;5028216;28;20463;-72
2022/03/31 05:31:02;;;;;;;14.98;11.50;;;3.10;99.90;;;;;;5046006;28;20079;-71
2022/03/31 05:33:28;;;;;;;15.57;11.00;;;3.00;99.90;;;;;;5045674;28;20105;-71
2022/03/31 05:35:54;;;;;;;13.65;11.52;;;3.00;99.90;;;;;;5047958;28;20044;-74
2022/03/31 05:38:20;;;;;;;13.63;11.57;;;3.00;99.90;;;;;;5055550;28;20050;-74
2022/03/31 05:40:46;;;;;;;15.25;11.35;;;3.00;99.90;;;;;;5062799;28;20044;-74
2022/03/31 05:43:13;;;;;;;13.88;11.77;;;3.10;99.90;;;;;;5059221;28;20036;-74
2022/03/31 05:45:38;;;;;;;13.85;11.85;;;3.00;99.90;;;;;;5029690;28;20055;-73
2022/03/31 05:48:04;;;;;;;12.75;11.18;;;3.00;99.90;;;;;;5047002;28;20048;-74
2022/03/31 05:50:30;;;;;;;14.38;12.50;;;2.90;99.90;;;;;;5046603;28;20039;-74
2022/03/31 05:52:56;;;;;;;17.83;11.77;;;2.90;99.90;;;;;;5050417;28;20040;-74
2022/03/31 05:55:22;;;;;;;20.98;12.27;;;2.90;99.90;;;;;;5054803;28;20525;-74
2022/03/31 05:57:48;;;;;;;29.48;13.32;;;3.00;99.90;;;;;;5041373;28;20048;-74
2022/03/31 06:00:17;;;;;;;43.50;13.05;;;3.00;99.90;;;;;;5061499;28;20122;-73
2022/03/31 06:02:46;;;;;;;16.40;11.80;;;3.00;99.90;;;;;;5061481;28;20087;-74
2022/03/31 06:05:12;;;;;;;15.55;12.75;;;3.00;99.90;;;;;;5042263;28;20052;-74
2022/03/31 06:07:38;;;;;;;20.50;12.85;;;2.90;99.90;;;;;;5042865;28;20044;-73
2022/03/31 06:10:06;;;;;;;28.48;14.20;;;3.00;99.90;;;;;;5058672;28;20055;-73
2022/03/31 06:12:32;;;;;;;15.85;14.00;;;3.00;99.90;;;;;;5060847;28;20047;-73
2022/03/31 06:14:58;;;;;;;18.30;13.52;;;2.90;99.90;;;;;;5060984;28;20090;-73
2022/03/31 06:17:24;;;;;;;14.60;13.10;;;3.00;99.90;;;;;;5039354;28;20044;-74
2022/03/31 06:19:50;;;;;;;16.38;13.93;;;2.90;99.90;;;;;;5058229;28;20154;-74
2022/03/31 06:22:16;;;;;;;27.95;13.13;;;3.00;99.90;;;;;;5041607;28;20046;-74
2022/03/31 06:24:42;;;;;;;15.25;13.43;;;3.10;99.90;;;;;;5059837;28;20044;-74
2022/03/31 06:27:09;;;;;;;16.73;13.50;;;2.90;99.90;;;;;;5061423;28;20135;-74
2022/03/31 06:29:35;;;;;;;16.35;13.98;;;3.00;99.90;;;;;;5058601;28;20442;-75
2022/03/31 06:32:02;;;;;;;16.63;14.32;;;3.00;99.90;;;;;;5057050;28;20700;-74
2022/03/31 06:34:29;;;;;;;17.10;14.10;;;3.10;99.90;;;;;;5061195;28;20837;-73
2022/03/31 06:36:55;;;;;;;19.98;12.88;;;3.10;99.90;;;;;;5060576;28;20127;-74
2022/03/31 06:39:21;;;;;;;18.15;12.57;;;3.20;99.90;;;;;;5059896;28;20425;-74
2022/03/31 06:41:47;;;;;;;15.77;13.70;;;3.20;99.90;;;;;;5059681;28;20692;-74
2022/03/31 06:44:15;;;;;;;15.68;12.82;;;3.00;99.90;;;;;;5042682;28;20410;-74
2022/03/31 06:46:41;;;;;;;14.30;12.80;;;3.10;99.90;;;;;;5053178;28;20055;-73
2022/03/31 06:49:08;;;;;;;19.67;14.95;;;3.00;99.90;;;;;;5060530;28;20052;-74
2022/03/31 06:51:35;;;;;;;16.45;13.30;;;3.10;99.90;;;;;;5058412;28;20431;-74
2022/03/31 06:54:02;;;;;;;16.20;14.18;;;3.20;99.90;;;;;;5017083;28;20051;-74
2022/03/31 06:56:29;;;;;;;17.42;15.27;;;3.30;99.90;;;;;;5055488;28;20048;-74
2022/03/31 06:58:56;;;;;;;18.33;14.63;;;3.20;99.90;;;;;;5059123;28;20063;-73
2022/03/31 07:01:23;;;;;;;16.60;14.35;;;3.20;99.90;;;;;;5056750;28;20787;-74
2022/03/31 07:03:49;;;;;;;20.23;15.63;;;3.20;99.90;;;;;;5060280;28;20059;-74
2022/03/31 07:06:16;;;;;;;16.38;14.43;;;3.20;99.90;;;;;;5057199;28;20048;-74
2022/03/31 07:08:41;;;;;;;18.08;15.85;;;3.20;99.90;;;;;;5040210;28;20062;-74
2022/03/31 07:11:09;;;;;;;22.58;14.27;;;3.30;99.90;;;;;;5027208;28;20698;-73
2022/03/31 07:13:36;;;;;;;18.92;16.33;;;3.40;99.90;;;;;;5058136;28;20464;-74
2022/03/31 07:16:02;;;;;;;19.77;15.38;;;3.40;99.90;;;;;;5058377;28;20549;-74
2022/03/31 07:18:28;;;;;;;20.23;16.13;;;3.50;99.90;;;;;;5040446;28;20109;-74
2022/03/31 07:20:57;;;;;;;22.50;17.00;;;3.40;99.90;;;;;;5060119;28;20993;-73
2022/03/31 07:23:23;;;;;;;18.92;16.50;;;3.50;99.90;;;;;;5058851;28;20054;-74
2022/03/31 07:25:56;;;;;;;21.10;17.77;;;3.40;99.90;;;;;;5056605;28;20056;-74
2022/03/31 07:28:23;;;;;;;22.25;17.80;;;3.50;99.90;;;;;;5057561;28;20785;-74
2022/03/31 07:30:50;;;;;;;22.38;18.25;;;3.60;99.90;;;;;;5037362;28;20139;-74
2022/03/31 07:33:19;;;;;;;20.83;18.30;;;3.50;99.90;;;;;;5018258;28;20048;-74
2022/03/31 07:35:47;;;;;;;21.52;18.67;;;3.50;99.90;;;;;;5042135;28;20105;-73
2022/03/31 07:38:14;;;;;;;22.45;19.05;;;3.50;99.90;;;;;;5061613;28;20079;-74
2022/03/31 07:40:41;;;;;;;22.75;19.42;;;3.50;99.90;;;;;;5061103;28;20534;-74
2022/03/31 07:43:08;;;;;;;20.63;17.92;;;3.50;99.90;;;;;;5060369;28;20036;-73
2022/03/31 07:45:35;;;;;;;22.13;18.55;;;3.60;99.90;;;;;;5062619;28;20043;-74
2022/03/31 07:48:03;;;;;;;22.10;19.05;;;3.70;99.90;;;;;;5062630;28;20051;-73
2022/03/31 07:50:30;;;;;;;24.80;19.98;;;3.50;99.90;;;;;;5046156;28;20048;-74
2022/03/31 07:52:57;;;;;;;26.38;18.65;;;3.70;99.90;;;;;;5062584;28;20075;-73
2022/03/31 07:55:23;;;;;;;25.05;20.05;;;3.80;99.90;;;;;;5064124;28;20044;-74
2022/03/31 07:57:50;;;;;;;26.05;20.75;;;3.70;99.90;;;;;;5062764;28;20047;-73
2022/03/31 08:00:17;;;;;;;25.75;20.42;;;3.80;99.90;;;;;;5045679;28;20086;-73
2022/03/31 08:02:47;;;;;;;25.67;20.55;;;3.70;99.90;;;;;;5043046;28;20091;-74
2022/03/31 08:05:16;;;;;;;25.98;21.55;;;3.70;99.90;;;;;;5038286;28;20054;-73
2022/03/31 08:07:42;;;;;;;28.80;22.55;;;3.70;99.90;;;;;;5041480;28;20070;-74
2022/03/31 08:10:09;;;;;;;30.77;23.38;;;3.70;99.90;;;;;;5055383;28;20040;-74
2022/03/31 08:12:35;;;;;;;28.73;23.45;;;3.70;99.90;;;;;;5065576;28;20091;-73
2022/03/31 08:15:04;;;;;;;30.27;24.67;;;3.80;99.90;;;;;;5063809;28;20398;-74
2022/03/31 08:17:31;;;;;;;36.67;25.92;;;3.80;99.90;;;;;;5062980;28;20040;-74
2022/03/31 08:19:57;;;;;;;34.28;25.02;;;3.90;99.90;;;;;;5065981;28;20044;-74
2022/03/31 08:22:23;;;;;;;31.15;25.58;;;3.90;99.90;;;;;;5063242;28;20058;-74
2022/03/31 08:24:50;;;;;;;31.17;23.95;;;3.80;99.90;;;;;;5063061;28;20044;-74
2022/03/31 08:27:16;;;;;;;73.28;25.98;;;3.80;99.90;;;;;;5061608;28;20119;-74
2022/03/31 08:29:42;;;;;;;33.45;26.20;;;3.90;99.90;;;;;;5047017;28;20044;-74
2022/03/31 08:32:08;;;;;;;32.17;26.77;;;3.80;99.90;;;;;;5061331;28;20044;-74
2022/03/31 08:34:34;;;;;;;29.15;24.08;;;3.90;99.90;;;;;;5043960;28;20134;-74
2022/03/31 08:37:00;;;;;;;27.25;22.50;;;4.00;99.90;;;;;;5046399;28;20496;-74
2022/03/31 08:39:26;;;;;;;27.50;22.10;;;3.90;99.90;;;;;;5063064;28;20072;-73
2022/03/31 08:41:52;;;;;;;28.25;22.80;;;4.00;99.90;;;;;;5045634;28;20075;-73
2022/03/31 08:44:20;;;;;;;28.35;23.00;;;4.00;99.90;;;;;;5063967;28;20044;-71
2022/03/31 08:46:48;;;;;;;24.10;20.73;;;4.10;99.90;;;;;;5045029;28;20139;-72
2022/03/31 08:49:14;;;;;;;25.75;20.05;;;4.00;99.90;;;;;;5044393;28;20056;-72
2022/03/31 08:51:43;;;;;;;21.90;18.98;;;4.10;99.90;;;;;;5062052;28;20039;-72
2022/03/31 08:54:08;;;;;;;23.23;18.90;;;4.10;99.90;;;;;;5059849;28;20036;-74
2022/03/31 08:56:36;;;;;;;22.20;18.85;;;4.10;99.90;;;;;;5063423;28;20040;-73
2022/03/31 08:59:02;;;;;;;22.05;19.10;;;4.10;99.90;;;;;;5054495;28;20841;-74
2022/03/31 09:01:32;;;;;;;21.73;19.00;;;4.20;99.90;;;;;;5033372;28;20089;-74
2022/03/31 09:03:58;;;;;;;17.60;15.70;;;4.20;99.90;;;;;;5060138;28;20490;-74
2022/03/31 09:06:30;;;;;;;19.45;15.10;;;4.00;99.90;;;;;;5062338;28;20048;-74
2022/03/31 09:09:02;;;;;;;17.90;15.60;;;4.10;99.90;;;;;;5041882;28;20040;-73
2022/03/31 09:11:34;;;;;;;18.42;15.30;;;4.10;99.90;;;;;;5061566;28;20113;-74
2022/03/31 09:14:02;;;;;;;20.17;12.30;;;4.10;99.90;;;;;;5061437;28;20056;-75
2022/03/31 09:16:36;;;;;;;17.05;12.48;;;4.00;99.90;;;;;;5059791;28;20159;-75
2022/03/31 09:19:07;;;;;;;14.05;12.15;;;4.10;99.90;;;;;;5062082;28;20044;-74
2022/03/31 09:21:35;;;;;;;49.75;13.05;;;4.10;99.90;;;;;;5059481;28;20044;-74
2022/03/31 09:24:02;;;;;;;71.25;14.05;;;4.00;99.90;;;;;;5043338;28;20059;-74
2022/03/31 09:26:31;;;;;;;14.70;10.60;;;4.10;99.90;;;;;;5063781;28;20051;-74
2022/03/31 09:29:13;;;;;;;17.00;10.27;;;3.90;99.90;;;;;;5042213;28;20097;-74
2022/03/31 09:31:40;;;;;;;10.40;9.13;;;3.80;99.90;;;;;;5059768;28;20105;-74
2022/03/31 09:34:07;;;;;;;10.93;9.63;;;3.80;99.90;;;;;;5060617;28;20048;-74
2022/03/31 09:36:33;;;;;;;10.05;8.60;;;3.70;99.90;;;;;;5060665;28;20059;-74
2022/03/31 09:39:07;;;;;;;11.82;9.60;;;3.60;99.90;;;;;;5059962;28;20048;-74
2022/03/31 09:41:38;;;;;;;12.80;11.07;;;3.70;99.90;;;;;;5057843;28;20127;-74
2022/03/31 09:44:15;;;;;;;12.73;10.38;;;3.70;99.90;;;;;;5042970;28;20039;-74
2022/03/31 09:46:43;;;;;;;10.55;8.98;;;3.60;99.90;;;;;;5061151;28;20039;-74
2022/03/31 09:49:14;;;;;;;10.18;8.57;;;3.40;99.90;;;;;;5041869;28;20528;-74
2022/03/31 09:51:42;;;;;;;10.90;9.00;;;3.30;99.90;;;;;;5061307;28;20144;-75
2022/03/31 09:54:08;;;;;;;14.05;8.55;;;3.40;99.90;;;;;;5025662;28;20058;-73
2022/03/31 09:56:35;;;;;;;11.65;8.90;;;3.30;99.90;;;;;;5059482;28;20071;-74
2022/03/31 09:59:03;;;;;;;14.88;11.55;;;3.20;99.90;;;;;;5060180;28;20056;-74
2022/03/31 10:01:29;;;;;;;10.20;8.57;;;3.10;99.90;;;;;;5041884;28;20044;-74
2022/03/31 10:03:56;;;;;;;10.80;8.73;;;3.10;99.90;;;;;;5059008;28;20767;-74
2022/03/31 10:06:24;;;;;;;10.10;8.57;;;3.00;99.90;;;;;;5044069;28;20154;-74
2022/03/31 10:08:51;;;;;;;13.93;11.02;;;2.90;99.90;;;;;;5059800;28;20687;-74
2022/03/31 10:11:22;;;;;;;14.98;12.57;;;2.90;99.90;;;;;;5060660;28;20071;-74
2022/03/31 10:14:08;;;;;;;43.05;34.30;;;2.80;99.90;;;;;;5060910;28;20070;-74
2022/03/31 10:16:44;;;;;;;77.60;66.72;;;2.70;99.90;;;;;;5061746;28;20047;-74
2022/03/31 10:19:10;;;;;;;28.48;24.05;;;2.80;99.90;;;;;;5059719;28;20467;-75
2022/03/31 10:21:36;;;;;;;17.63;15.35;;;2.80;99.90;;;;;;5062328;28;20561;-74
2022/03/31 10:26:59;;;;;;;13.73;11.63;;;2.80;99.90;;;;;;5060149;28;20052;-74
2022/03/31 10:29:40;;;;;;;14.93;12.13;;;2.60;99.90;;;;;;5058396;28;20039;-73
2022/03/31 10:32:20;;;;;;;19.95;11.23;;;2.60;99.90;;;;;;5060474;28;20060;-74
2022/03/31 10:34:48;;;;;;;14.25;10.30;;;2.90;99.90;;;;;;5060053;28;20040;-74
2022/03/31 10:37:17;;;;;;;10.65;7.65;;;2.80;99.90;;;;;;5057501;28;20059;-74
2022/03/31 10:39:56;;;;;;;10.48;7.28;;;2.90;99.90;;;;;;5058353;28;20044;-74
2022/03/31 10:42:23;;;;;;;9.10;7.22;;;2.80;99.90;;;;;;5053975;28;20386;-74
2022/03/31 10:44:49;;;;;;;10.73;7.93;;;2.80;99.90;;;;;;5059665;28;20044;-73
2022/03/31 10:47:15;;;;;;;12.07;7.07;;;2.80;99.90;;;;;;5060228;28;20068;-73
2022/03/31 10:49:53;;;;;;;8.25;7.00;;;3.00;99.90;;;;;;5059714;28;21124;-74
2022/03/31 10:52:23;;;;;;;9.77;7.75;;;2.90;99.90;;;;;;5060001;28;20048;-74
2022/03/31 10:54:53;;;;;;;11.20;8.05;;;3.10;99.90;;;;;;5059805;28;20056;-74
2022/03/31 10:57:20;;;;;;;9.60;8.00;;;3.20;99.90;;;;;;5040556;28;20048;-74
2022/03/31 10:59:49;;;;;;;9.32;7.93;;;3.30;99.90;;;;;;5060959;28;20624;-74
2022/03/31 11:02:21;;;;;;;26.27;8.07;;;3.10;99.90;;;;;;5057642;28;20093;-74
2022/03/31 11:04:51;;;;;;;10.20;8.40;;;3.20;99.90;;;;;;5059203;28;20052;-74
2022/03/31 11:07:21;;;;;;;12.20;8.35;;;3.20;99.90;;;;;;5057680;28;20083;-74
2022/03/31 11:09:47;;;;;;;12.88;9.40;;;3.30;99.90;;;;;;5059469;28;20109;-74
2022/03/31 11:12:26;;;;;;;11.77;10.43;;;3.70;99.90;;;;;;5058418;28;20533;-74
2022/03/31 11:14:57;;;;;;;13.65;10.98;;;3.60;99.90;;;;;;5057136;28;20128;-74
2022/03/31 11:17:23;;;;;;;14.63;12.52;;;3.80;99.90;;;;;;5061578;28;20048;-74
2022/03/31 11:19:51;;;;;;;14.43;12.10;;;3.90;99.90;;;;;;5064104;28;20047;-74
2022/03/31 11:22:22;;;;;;;15.80;13.57;;;4.10;99.90;;;;;;5065398;28;20066;-74
2022/03/31 11:24:50;;;;;;;36.28;14.93;;;4.00;99.90;;;;;;5064667;28;20111;-72
2022/03/31 11:27:28;;;;;;;18.00;14.57;;;4.20;99.90;;;;;;5061268;28;20054;-72
2022/03/31 11:30:00;;;;;;;17.98;15.25;;;4.20;99.90;;;;;;5063704;28;20044;-72
2022/03/31 11:32:32;;;;;;;18.20;13.93;;;4.10;99.90;;;;;;5063506;28;20044;-72
2022/03/31 11:34:59;;;;;;;18.40;15.98;;;4.30;99.90;;;;;;5063821;28;20220;-72
2022/03/31 11:37:24;;;;;;;18.98;16.33;;;4.20;99.90;;;;;;5063284;28;20043;-72
2022/03/31 11:39:51;;;;;;;18.88;15.18;;;4.20;99.90;;;;;;5045765;28;20055;-73
2022/03/31 11:42:16;;;;;;;25.35;17.58;;;4.20;99.90;;;;;;5064081;28;20066;-72
2022/03/31 11:44:42;;;;;;;19.73;17.00;;;4.30;99.90;;;;;;5046860;28;20843;-72
2022/03/31 11:47:16;;;;;;;20.58;17.20;;;4.30;99.90;;;;;;5063985;28;20054;-72
2022/03/31 11:49:43;;;;;;;24.17;20.00;;;4.30;99.90;;;;;;5064802;28;20657;-72
2022/03/31 11:52:09;;;;;;;22.67;19.33;;;4.40;99.90;;;;;;5064653;28;22395;-72
2022/03/31 11:54:43;;;;;;;24.90;20.50;;;4.40;99.90;;;;;;5046125;28;20055;-72
2022/03/31 11:57:12;;;;;;;25.10;21.45;;;4.40;99.90;;;;;;5063605;28;20044;-71
2022/03/31 11:59:38;;;;;;;24.27;21.13;;;4.50;99.90;;;;;;5059328;28;20113;-72
2022/03/31 12:02:17;;;;;;;27.27;22.50;;;4.80;99.90;;;;;;5061920;28;20047;-72
2022/03/31 12:04:45;;;;;;;23.20;20.70;;;4.60;99.90;;;;;;5061193;28;20441;-72
2022/03/31 12:07:12;;;;;;;24.15;21.05;;;4.70;99.90;;;;;;5046833;28;20140;-72
2022/03/31 12:09:44;;;;;;;26.92;22.75;;;4.70;99.90;;;;;;5062775;28;20326;-72
2022/03/31 12:12:15;;;;;;;31.23;22.83;;;4.70;99.90;;;;;;5064625;28;20047;-72
2022/03/31 12:14:53;;;;;;;49.75;22.60;;;4.70;99.90;;;;;;5060866;28;20145;-73
2022/03/31 12:17:20;;;;;;;27.63;21.40;;;4.80;99.90;;;;;;5062793;28;20494;-73
2022/03/31 12:19:46;;;;;;;24.42;21.15;;;4.60;99.90;;;;;;5063015;28;20087;-73
2022/03/31 12:22:12;;;;;;;26.13;20.58;;;4.60;99.90;;;;;;5044888;28;20184;-72
2022/03/31 12:24:52;;;;;;;28.13;21.10;;;4.70;99.90;;;;;;5062476;28;20941;-72
2022/03/31 12:27:19;;;;;;;26.88;21.60;;;4.80;99.90;;;;;;5061147;28;20044;-73
2022/03/31 12:29:56;;;;;;;32.50;20.70;;;4.80;99.90;;;;;;5055859;28;20448;-73
2022/03/31 12:32:22;;;;;;;28.02;21.45;;;4.90;99.90;;;;;;5048074;28;21313;-71
2022/03/31 12:34:56;;;;;;;28.00;22.35;;;4.90;99.90;;;;;;5050887;28;20040;-72
2022/03/31 12:37:45;;;;;;;30.38;24.08;;;4.90;99.90;;;;;;5046649;28;20101;-72
2022/03/31 12:40:16;;;;;;;35.35;23.38;;;4.80;99.90;;;;;;5049805;28;20705;-72
2022/03/31 12:42:53;;;;;;;29.88;23.02;;;4.90;99.90;;;;;;5046818;28;20050;-71
2022/03/31 12:45:19;;;;;;;30.83;24.20;;;4.90;99.90;;;;;;5048293;28;20468;-72
2022/03/31 12:47:47;;;;;;;34.75;26.17;;;5.00;99.90;;;;;;5047304;28;20079;-72
2022/03/31 12:50:25;;;;;;;37.28;26.98;;;5.00;99.90;;;;;;5049724;28;20040;-73